createdAt,value
2019-05-25T00:00:26.596Z,27.17
2019-05-25T00:03:00.727Z,26.82
2019-05-25T00:05:34.834Z,28.25
2019-05-25T00:08:09.364Z,27.45
2019-05-25T00:10:43.485Z,28.47
2019-05-25T00:13:17.693Z,28.12
2019-05-25T00:15:52.140Z,28.75
2019-05-25T00:18:26.548Z,28.60
2019-05-25T00:21:00.670Z,28.98
2019-05-25T00:23:36.084Z,27.77
2019-05-25T00:26:10.001Z,29.30
2019-05-25T00:28:44.582Z,29.15
2019-05-25T00:31:19.769Z,28.42
2019-05-25T00:33:54.012Z,27.90
2019-05-25T00:36:28.126Z,28.60
2019-05-25T00:39:02.446Z,28.32
2019-05-25T00:41:36.558Z,27.77
2019-05-25T00:44:10.651Z,28.70
2019-05-25T00:46:44.567Z,28.60
2019-05-25T00:49:18.582Z,28.98
2019-05-25T00:51:52.751Z,29.00
2019-05-25T00:54:28.272Z,29.27
2019-05-25T00:57:02.788Z,27.90
2019-05-25T00:59:37.026Z,28.98
2019-05-25T01:02:11.084Z,29.37
2019-05-25T01:04:45.125Z,29.23
2019-05-25T01:07:19.349Z,29.20
2019-05-25T01:09:53.613Z,29.67
2019-05-25T01:12:27.632Z,29.18
2019-05-25T01:15:01.739Z,29.98
2019-05-25T01:17:35.939Z,30.10
2019-05-25T01:20:10.735Z,29.07
2019-05-25T01:22:44.816Z,30.43
2019-05-25T01:25:19.482Z,30.15
2019-05-25T01:27:53.475Z,31.27
2019-05-25T01:30:27.842Z,29.92
2019-05-25T01:33:01.928Z,29.35
2019-05-25T01:35:36.177Z,30.10
2019-05-25T01:38:10.038Z,29.63
2019-05-25T01:40:44.281Z,30.62
2019-05-25T01:43:18.092Z,30.23
2019-05-25T01:45:53.432Z,30.65
2019-05-25T01:48:27.520Z,31.10
2019-05-25T01:51:01.523Z,29.95
2019-05-25T01:53:35.368Z,28.92
2019-05-25T01:56:09.454Z,29.20
2019-05-25T01:58:43.424Z,30.80
2019-05-25T02:01:17.617Z,29.70
2019-05-25T02:03:51.625Z,30.10
2019-05-25T02:06:26.319Z,30.70
2019-05-25T02:09:00.441Z,29.70
2019-05-25T02:11:34.646Z,30.30
2019-05-25T02:14:09.749Z,29.57
2019-05-25T02:16:43.795Z,29.80
2019-05-25T02:19:17.729Z,29.90
2019-05-25T02:21:51.947Z,30.17
2019-05-25T02:24:25.796Z,30.12
2019-05-25T02:27:00.157Z,30.43
2019-05-25T02:29:34.178Z,29.87
2019-05-25T02:32:08.595Z,30.20
2019-05-25T02:34:42.597Z,30.65
2019-05-25T02:37:17.644Z,31.55
2019-05-25T02:39:51.780Z,32.25
2019-05-25T02:42:26.650Z,31.35
2019-05-25T02:45:00.700Z,31.05
2019-05-25T02:47:34.951Z,31.05
2019-05-25T02:50:09.960Z,31.05
2019-05-25T02:52:43.956Z,31.70
2019-05-25T02:55:33.167Z,30.57
2019-05-25T02:57:54.302Z,30.57
2019-05-25T03:00:35.442Z,31.45
2019-05-25T03:03:10.299Z,31.48
2019-05-25T03:05:44.436Z,31.25
2019-05-25T03:08:18.451Z,30.60
2019-05-25T03:10:54.882Z,30.88
2019-05-25T03:13:30.504Z,30.75
2019-05-25T03:16:04.657Z,31.37
2019-05-25T03:18:39.158Z,31.55
2019-05-25T03:21:13.191Z,31.05
2019-05-25T03:23:47.120Z,31.33
2019-05-25T03:26:21.425Z,30.70
2019-05-25T03:28:55.279Z,30.82
2019-05-25T03:31:29.418Z,31.57
2019-05-25T03:34:03.513Z,30.48
2019-05-25T03:36:37.831Z,30.48
2019-05-25T03:39:12.059Z,30.75
2019-05-25T03:41:46.225Z,30.88
2019-05-25T03:44:20.304Z,30.92
2019-05-25T03:46:54.313Z,31.50
2019-05-25T03:49:28.274Z,31.10
2019-05-25T03:52:02.437Z,30.88
2019-05-25T03:54:36.534Z,30.43
2019-05-25T03:57:10.367Z,30.72
2019-05-25T03:59:44.746Z,30.62
2019-05-25T04:02:18.871Z,30.85
2019-05-25T04:04:53.401Z,29.48
2019-05-25T04:07:27.512Z,31.12
2019-05-25T04:10:02.175Z,30.23
2019-05-25T04:12:36.407Z,29.63
2019-05-25T04:15:10.662Z,31.50
2019-05-25T04:17:44.949Z,30.35
2019-05-25T04:20:19.014Z,30.40
2019-05-25T04:22:52.904Z,31.75
2019-05-25T04:25:27.007Z,30.27
2019-05-25T04:28:01.059Z,29.55
2019-05-25T04:30:35.114Z,30.65
2019-05-25T04:33:09.261Z,30.20
2019-05-25T04:35:43.263Z,30.55
2019-05-25T04:38:17.168Z,29.27
2019-05-25T04:40:51.192Z,29.85
2019-05-25T04:43:25.024Z,30.35
2019-05-25T04:45:59.389Z,29.15
2019-05-25T04:48:33.517Z,29.48
2019-05-25T04:51:07.836Z,29.80
2019-05-25T04:53:41.924Z,29.02
2019-05-25T04:56:16.102Z,30.20
2019-05-25T04:58:50.104Z,29.75
2019-05-25T05:01:25.369Z,29.23
2019-05-25T05:04:00.925Z,29.00
2019-05-25T05:06:34.947Z,29.10
2019-05-25T05:09:10.671Z,28.23
2019-05-25T05:11:45.092Z,29.35
2019-05-25T05:14:19.070Z,28.57
2019-05-25T05:16:53.102Z,28.67
2019-05-25T05:19:26.886Z,28.27
2019-05-25T05:22:00.706Z,27.82
2019-05-25T05:24:34.863Z,28.45
2019-05-25T05:27:09.775Z,28.00
2019-05-25T05:29:43.844Z,27.77
2019-05-25T05:32:27.149Z,28.90
2019-05-25T05:34:54.238Z,28.42
2019-05-25T05:37:29.013Z,28.67
2019-05-25T05:40:03.645Z,28.38
2019-05-25T05:42:40.443Z,27.98
2019-05-25T05:45:15.742Z,27.60
2019-05-25T05:47:52.569Z,28.10
2019-05-25T05:50:26.959Z,27.32
2019-05-25T05:53:03.320Z,28.45
2019-05-25T05:55:37.585Z,28.23
2019-05-25T05:58:11.600Z,27.35
2019-05-25T06:00:45.843Z,27.10
2019-05-25T06:03:20.190Z,26.77
2019-05-25T06:05:54.292Z,26.45
2019-05-25T06:08:28.406Z,26.10
2019-05-25T06:11:02.622Z,25.75
2019-05-25T06:13:38.202Z,25.82
2019-05-25T06:16:12.391Z,26.48
2019-05-25T06:18:46.310Z,24.52
2019-05-25T06:21:20.441Z,25.82
2019-05-25T06:23:54.595Z,26.10
2019-05-25T06:26:29.124Z,24.50
2019-05-25T06:29:03.473Z,25.23
2019-05-25T06:31:37.831Z,24.67
2019-05-25T06:34:11.988Z,24.52
2019-05-25T06:36:46.683Z,23.83
2019-05-25T06:39:20.855Z,23.52
2019-05-25T06:41:55.173Z,23.80
2019-05-25T06:44:29.641Z,23.47
2019-05-25T06:47:04.062Z,23.25
2019-05-25T06:49:38.162Z,22.60
2019-05-25T06:52:12.272Z,21.82
2019-05-25T06:54:46.440Z,22.00
2019-05-25T06:57:20.647Z,21.52
2019-05-25T06:59:55.017Z,21.10
2019-05-25T07:02:29.357Z,22.55
2019-05-25T07:05:03.798Z,21.68
2019-05-25T07:07:38.100Z,21.00
2019-05-25T07:10:12.495Z,20.48
2019-05-25T07:12:46.990Z,21.35
2019-05-25T07:15:21.796Z,19.65
2019-05-25T07:17:56.089Z,20.68
2019-05-25T07:20:30.400Z,19.75
2019-05-25T07:23:04.516Z,19.02
2019-05-25T07:25:38.763Z,19.82
2019-05-25T07:28:12.918Z,18.12
2019-05-25T07:30:47.107Z,18.52
2019-05-25T07:33:21.060Z,18.42
2019-05-25T07:35:55.422Z,17.70
2019-05-25T07:38:29.604Z,18.05
2019-05-25T07:41:04.371Z,17.67
2019-05-25T07:43:38.418Z,18.20
2019-05-25T07:46:16.491Z,17.45
2019-05-25T07:48:50.491Z,17.50
2019-05-25T07:51:24.821Z,17.27
2019-05-25T07:53:59.268Z,16.60
2019-05-25T07:56:33.365Z,16.55
2019-05-25T07:59:08.107Z,17.62
2019-05-25T08:01:42.407Z,16.40
2019-05-25T08:04:16.864Z,16.20
2019-05-25T08:06:50.990Z,16.35
2019-05-25T08:09:25.353Z,16.32
2019-05-25T08:11:59.641Z,15.88
2019-05-25T08:14:33.934Z,15.63
2019-05-25T08:17:08.943Z,15.60
2019-05-25T08:19:43.294Z,15.85
2019-05-25T08:22:17.597Z,14.90
2019-05-25T08:24:52.754Z,14.68
2019-05-25T08:27:27.083Z,15.05
2019-05-25T08:30:01.551Z,14.73
2019-05-25T08:32:35.609Z,14.85
2019-05-25T08:35:14.209Z,14.43
2019-05-25T08:37:48.284Z,15.28
2019-05-25T08:40:23.245Z,14.50
2019-05-25T08:42:57.487Z,14.15
2019-05-25T08:45:31.607Z,14.07
2019-05-25T08:48:06.388Z,13.95
2019-05-25T08:50:41.010Z,14.15
2019-05-25T08:53:15.196Z,13.68
2019-05-25T08:55:49.639Z,14.18
2019-05-25T08:58:23.685Z,13.95
2019-05-25T09:00:58.172Z,13.00
2019-05-25T09:03:32.443Z,13.98
2019-05-25T09:06:06.420Z,13.93
2019-05-25T09:08:40.616Z,13.25
2019-05-25T09:11:14.588Z,12.50
2019-05-25T09:13:48.617Z,13.13
2019-05-25T09:16:23.017Z,12.88
2019-05-25T09:18:57.090Z,12.70
2019-05-25T09:21:31.546Z,13.18
2019-05-25T09:24:06.012Z,12.53
2019-05-25T09:26:40.295Z,12.43
2019-05-25T09:29:14.529Z,11.88
2019-05-25T09:31:48.764Z,12.05
2019-05-25T09:34:24.188Z,12.05
2019-05-25T09:37:00.843Z,11.20
2019-05-25T09:39:37.432Z,11.97
2019-05-25T09:42:14.007Z,11.60
2019-05-25T09:44:49.626Z,11.53
2019-05-25T09:47:23.896Z,11.33
2019-05-25T09:50:00.770Z,10.65
2019-05-25T09:52:34.911Z,11.30
2019-05-25T09:55:09.982Z,11.20
2019-05-25T09:57:44.217Z,10.88
2019-05-25T10:00:18.834Z,10.70
2019-05-25T10:02:53.051Z,11.28
2019-05-25T10:05:27.446Z,10.70
2019-05-25T10:08:01.402Z,11.25
2019-05-25T10:10:35.526Z,11.00
2019-05-25T10:13:09.445Z,10.80
2019-05-25T10:15:43.901Z,10.48
2019-05-25T10:18:17.875Z,10.25
2019-05-25T10:20:52.408Z,10.23
2019-05-25T10:23:27.796Z,10.43
2019-05-25T10:26:02.078Z,10.45
2019-05-25T10:28:36.106Z,10.58
2019-05-25T10:31:10.410Z,10.28
2019-05-25T10:33:45.377Z,10.08
2019-05-25T10:36:19.811Z,10.03
2019-05-25T10:38:54.771Z,10.03
2019-05-25T10:41:29.272Z,10.35
2019-05-25T10:44:03.720Z,9.90
2019-05-25T10:46:37.720Z,9.70
2019-05-25T10:49:11.988Z,9.50
2019-05-25T10:51:46.244Z,9.48
2019-05-25T10:54:20.477Z,9.85
2019-05-25T10:56:54.424Z,9.30
2019-05-25T10:59:28.750Z,9.85
2019-05-25T11:02:03.000Z,9.45
2019-05-25T11:04:37.012Z,9.25
2019-05-25T11:07:11.208Z,9.60
2019-05-25T11:09:45.419Z,9.38
2019-05-25T11:12:19.882Z,9.05
2019-05-25T11:14:53.962Z,9.50
2019-05-25T11:17:28.398Z,9.20
2019-05-25T11:20:02.537Z,9.18
2019-05-25T11:22:36.836Z,9.58
2019-05-25T11:25:11.138Z,9.43
2019-05-25T11:27:45.535Z,9.30
2019-05-25T11:30:19.535Z,8.95
2019-05-25T11:32:53.890Z,9.18
2019-05-25T11:35:28.186Z,8.83
2019-05-25T11:38:02.407Z,9.38
2019-05-25T11:40:36.262Z,8.80
2019-05-25T11:43:10.552Z,9.35
2019-05-25T11:45:45.490Z,8.98
2019-05-25T11:48:19.734Z,9.08
2019-05-25T11:50:53.991Z,8.88
2019-05-25T11:53:28.112Z,8.70
2019-05-25T11:56:02.154Z,9.05
2019-05-25T11:58:46.902Z,8.95
2019-05-25T12:01:12.649Z,8.78
2019-05-25T12:03:46.676Z,8.88
2019-05-25T12:06:20.834Z,8.30
2019-05-25T12:08:54.918Z,9.13
2019-05-25T12:11:28.827Z,8.65
2019-05-25T12:14:02.849Z,8.60
2019-05-25T12:16:36.842Z,8.80
2019-05-25T12:19:14.718Z,8.33
2019-05-25T12:21:47.226Z,8.50
2019-05-25T12:24:33.931Z,8.58
2019-05-25T12:27:08.031Z,8.48
2019-05-25T12:29:42.243Z,8.65
2019-05-25T12:32:16.021Z,8.43
2019-05-25T12:34:50.213Z,8.65
2019-05-25T12:37:24.378Z,8.38
2019-05-25T12:39:58.788Z,8.20
2019-05-25T12:42:32.692Z,8.13
2019-05-25T12:45:08.218Z,8.98
2019-05-25T12:47:42.448Z,8.58
2019-05-25T12:50:17.689Z,8.58
2019-05-25T12:52:51.979Z,8.55
2019-05-25T12:55:26.040Z,8.83
2019-05-25T12:58:00.293Z,8.73
2019-05-25T13:00:34.350Z,8.50
2019-05-25T13:03:10.931Z,8.50
2019-05-25T13:05:44.347Z,8.50
2019-05-25T13:08:18.728Z,8.78
2019-05-25T13:10:52.842Z,8.60
2019-05-25T13:13:27.019Z,8.75
2019-05-25T13:16:00.984Z,9.03
2019-05-25T13:18:35.108Z,8.40
2019-05-25T13:21:09.038Z,8.50
2019-05-25T13:23:43.479Z,8.60
2019-05-25T13:26:17.645Z,8.18
2019-05-25T13:28:51.789Z,8.45
2019-05-25T13:31:25.873Z,8.88
2019-05-25T13:34:00.281Z,8.23
2019-05-25T13:36:34.365Z,8.50
2019-05-25T13:39:09.557Z,8.15
2019-05-25T13:41:43.565Z,7.92
2019-05-25T13:44:17.666Z,8.38
2019-05-25T13:46:51.655Z,8.55
2019-05-25T13:49:26.728Z,8.53
2019-05-25T13:52:02.038Z,8.58
2019-05-25T13:54:36.119Z,7.90
2019-05-25T13:57:10.130Z,8.40
2019-05-25T13:59:44.341Z,8.10
2019-05-25T14:02:18.499Z,8.63
2019-05-25T14:04:52.609Z,7.90
2019-05-25T14:07:26.524Z,7.80
2019-05-25T14:10:00.747Z,8.55
2019-05-25T14:12:34.816Z,7.75
2019-05-25T14:15:09.685Z,8.10
2019-05-25T14:17:43.541Z,8.38
2019-05-25T14:20:18.230Z,8.23
2019-05-25T14:22:52.222Z,8.30
2019-05-25T14:25:26.481Z,8.03
2019-05-25T14:28:00.674Z,8.30
2019-05-25T14:30:35.099Z,8.13
2019-05-25T14:33:09.072Z,8.40
2019-05-25T14:35:43.755Z,8.18
2019-05-25T14:38:17.983Z,8.18
2019-05-25T14:40:52.146Z,8.43
2019-05-25T14:43:26.181Z,8.50
2019-05-25T14:46:00.154Z,8.15
2019-05-25T14:48:34.416Z,8.60
2019-05-25T14:51:08.569Z,8.43
2019-05-25T14:53:42.628Z,8.55
2019-05-25T14:56:16.696Z,8.55
2019-05-25T14:58:50.620Z,8.43
2019-05-25T15:01:24.749Z,8.20
2019-05-25T15:03:58.732Z,8.23
2019-05-25T15:06:33.267Z,8.38
2019-05-25T15:09:09.241Z,8.30
2019-05-25T15:11:43.140Z,8.50
2019-05-25T15:14:17.393Z,8.00
2019-05-25T15:16:51.496Z,7.92
2019-05-25T15:19:26.759Z,8.10
2019-05-25T15:22:00.789Z,8.18
2019-05-25T15:24:35.097Z,8.48
2019-05-25T15:27:09.210Z,8.50
2019-05-25T15:29:43.360Z,8.43
2019-05-25T15:32:20.484Z,8.55
2019-05-25T15:34:53.410Z,8.88
2019-05-25T15:37:27.539Z,8.55
2019-05-25T15:40:01.559Z,8.60
2019-05-25T15:42:35.518Z,8.05
2019-05-25T15:45:10.101Z,8.65
2019-05-25T15:47:43.986Z,8.28
2019-05-25T15:50:18.224Z,8.73
2019-05-25T15:52:52.284Z,8.80
2019-05-25T15:55:26.267Z,8.80
2019-05-25T15:58:00.686Z,8.48
2019-05-25T16:00:48.724Z,9.40
2019-05-25T16:03:23.361Z,8.50
2019-05-25T16:05:57.767Z,7.90
2019-05-25T16:08:31.993Z,9.25
2019-05-25T16:11:06.432Z,8.78
2019-05-25T16:13:40.446Z,8.75
2019-05-25T16:16:14.404Z,8.83
2019-05-25T16:18:48.510Z,8.50
2019-05-25T16:21:22.639Z,8.43
2019-05-25T16:23:56.652Z,9.08
2019-05-25T16:26:44.921Z,8.93
2019-05-25T16:29:06.769Z,8.78
2019-05-25T16:31:40.995Z,9.10
2019-05-25T16:34:14.954Z,8.90
2019-05-25T16:36:48.860Z,9.20
2019-05-25T16:39:23.008Z,8.75
2019-05-25T16:41:57.111Z,9.25
2019-05-25T16:44:31.231Z,9.30
2019-05-25T16:47:05.282Z,9.23
2019-05-25T16:49:39.668Z,9.35
2019-05-25T16:52:13.699Z,9.53
2019-05-25T16:54:48.113Z,9.30
2019-05-25T16:57:22.380Z,9.73
2019-05-25T17:00:00.219Z,9.10
2019-05-25T17:02:34.281Z,9.05
2019-05-25T17:05:09.170Z,9.98
2019-05-25T17:07:43.299Z,9.63
2019-05-25T17:10:17.641Z,9.30
2019-05-25T17:12:51.729Z,9.23
2019-05-25T17:15:25.863Z,9.83
2019-05-25T17:18:04.392Z,9.50
2019-05-25T17:20:35.725Z,9.78
2019-05-25T17:23:09.797Z,10.10
2019-05-25T17:25:43.734Z,9.48
2019-05-25T17:28:17.824Z,9.98
2019-05-25T17:30:51.995Z,9.80
2019-05-25T17:33:26.213Z,10.10
2019-05-25T17:36:00.348Z,10.05
2019-05-25T17:38:34.590Z,9.70
2019-05-25T17:41:08.587Z,9.78
2019-05-25T17:43:42.774Z,10.03
2019-05-25T17:46:16.750Z,9.50
2019-05-25T17:48:51.041Z,10.08
2019-05-25T17:51:26.509Z,10.70
2019-05-25T17:54:00.526Z,10.58
2019-05-25T17:56:34.869Z,10.20
2019-05-25T17:59:09.025Z,10.48
2019-05-25T18:01:44.249Z,10.78
2019-05-25T18:04:18.257Z,11.10
2019-05-25T18:06:52.256Z,10.30
2019-05-25T18:09:26.289Z,11.00
2019-05-25T18:12:00.625Z,11.12
2019-05-25T18:14:34.499Z,10.85
2019-05-25T18:17:08.778Z,9.93
2019-05-25T18:19:42.966Z,10.68
2019-05-25T18:22:17.002Z,10.58
2019-05-25T18:24:51.327Z,10.70
2019-05-25T18:27:25.577Z,10.55
2019-05-25T18:29:59.798Z,11.03
2019-05-25T18:32:33.882Z,11.60
2019-05-25T18:35:08.301Z,11.00
2019-05-25T18:37:42.297Z,10.68
2019-05-25T18:40:16.955Z,11.45
2019-05-25T18:42:51.007Z,11.28
2019-05-25T18:45:25.204Z,11.40
2019-05-25T18:47:59.464Z,11.33
2019-05-25T18:50:33.541Z,11.48
2019-05-25T18:53:07.801Z,11.90
2019-05-25T18:55:42.358Z,10.90
2019-05-25T18:58:16.315Z,11.28
2019-05-25T19:00:50.403Z,11.93
2019-05-25T19:03:24.417Z,11.50
2019-05-25T19:05:58.397Z,11.70
2019-05-25T19:08:32.374Z,12.50
2019-05-25T19:11:06.218Z,12.33
2019-05-25T19:13:40.498Z,12.78
2019-05-25T19:16:14.483Z,11.95
2019-05-25T19:18:48.644Z,12.50
2019-05-25T19:21:22.710Z,11.78
2019-05-25T19:23:56.628Z,12.47
2019-05-25T19:26:30.668Z,12.15
2019-05-25T19:29:05.865Z,12.35
2019-05-25T19:31:39.891Z,11.60
2019-05-25T19:34:14.126Z,12.20
2019-05-25T19:36:48.153Z,12.88
2019-05-25T19:39:23.260Z,12.40
2019-05-25T19:41:57.419Z,13.58
2019-05-25T19:44:31.229Z,12.55
2019-05-25T19:47:05.420Z,12.63
2019-05-25T19:49:39.504Z,12.88
2019-05-25T19:52:13.448Z,12.68
2019-05-25T19:54:47.317Z,12.93
2019-05-25T19:57:21.365Z,12.80
2019-05-25T19:59:55.462Z,13.13
2019-05-25T20:02:29.465Z,13.15
2019-05-25T20:05:15.771Z,12.43
2019-05-25T20:07:39.443Z,13.20
2019-05-25T20:10:14.545Z,13.35
2019-05-25T20:12:48.734Z,13.22
2019-05-25T20:15:22.906Z,12.78
2019-05-25T20:17:56.856Z,13.30
2019-05-25T20:20:31.070Z,13.00
2019-05-25T20:23:05.083Z,13.28
2019-05-25T20:25:39.004Z,13.85
2019-05-25T20:28:13.068Z,13.28
2019-05-25T20:30:46.861Z,12.95
2019-05-25T20:33:27.488Z,14.00
2019-05-25T20:35:56.551Z,13.68
2019-05-25T20:38:30.343Z,13.72
2019-05-25T20:41:04.664Z,14.15
2019-05-25T20:43:38.601Z,13.32
2019-05-25T20:46:13.002Z,14.55
2019-05-25T20:48:47.054Z,12.88
2019-05-25T20:51:21.045Z,13.55
2019-05-25T20:53:56.767Z,14.60
2019-05-25T20:56:30.877Z,13.65
2019-05-25T20:59:04.937Z,14.98
2019-05-25T21:01:39.176Z,14.50
2019-05-25T21:04:13.413Z,13.70
2019-05-25T21:06:47.342Z,14.47
2019-05-25T21:09:21.698Z,14.78
2019-05-25T21:11:56.432Z,13.88
2019-05-25T21:14:31.133Z,14.87
2019-05-25T21:17:05.228Z,14.63
2019-05-25T21:19:39.566Z,14.28
2019-05-25T21:22:13.637Z,14.78
2019-05-25T21:24:47.833Z,15.20
2019-05-25T21:27:21.854Z,15.30
2019-05-25T21:29:55.895Z,15.00
2019-05-25T21:32:30.026Z,14.83
2019-05-25T21:35:04.102Z,14.38
2019-05-25T21:37:38.116Z,14.68
2019-05-25T21:40:13.477Z,15.05
2019-05-25T21:42:47.337Z,15.18
2019-05-25T21:45:21.942Z,15.25
2019-05-25T21:47:56.578Z,14.47
2019-05-25T21:50:32.034Z,14.87
2019-05-25T21:53:06.183Z,15.65
2019-05-25T21:55:39.989Z,15.32
2019-05-25T21:58:14.074Z,15.58
2019-05-25T22:00:48.472Z,15.15
2019-05-25T22:03:22.684Z,15.00
2019-05-25T22:05:56.793Z,15.68
2019-05-25T22:08:30.982Z,15.75
2019-05-25T22:11:05.160Z,15.53
2019-05-25T22:13:38.974Z,15.13
2019-05-25T22:16:13.193Z,16.12
2019-05-25T22:18:47.035Z,16.12
2019-05-25T22:21:21.260Z,16.27
2019-05-25T22:23:55.403Z,15.58
2019-05-25T22:26:29.694Z,16.87
2019-05-25T22:29:04.252Z,16.05
2019-05-25T22:31:38.372Z,16.60
2019-05-25T22:34:12.515Z,16.27
2019-05-25T22:36:46.488Z,16.35
2019-05-25T22:39:20.540Z,16.95
2019-05-25T22:41:54.780Z,16.10
2019-05-25T22:44:30.068Z,16.65
2019-05-25T22:47:05.095Z,16.40
2019-05-25T22:49:39.309Z,17.05
2019-05-25T22:52:13.435Z,17.80
2019-05-25T22:54:47.512Z,17.07
2019-05-25T22:57:21.690Z,17.67
2019-05-25T22:59:56.145Z,17.95
2019-05-25T23:02:30.365Z,17.85
2019-05-25T23:05:07.097Z,18.48
2019-05-25T23:07:40.473Z,17.80
2019-05-25T23:10:14.664Z,18.27
2019-05-25T23:12:48.732Z,17.87
2019-05-25T23:15:22.975Z,18.07
2019-05-25T23:17:56.825Z,18.15
2019-05-25T23:20:30.636Z,18.20
2019-05-25T23:23:04.851Z,18.05
2019-05-25T23:25:38.612Z,17.82
2019-05-25T23:28:12.421Z,19.48
2019-05-25T23:30:47.269Z,18.12
2019-05-25T23:33:21.454Z,18.52
2019-05-25T23:35:55.534Z,18.57
2019-05-25T23:38:29.712Z,19.82
2019-05-25T23:41:03.674Z,19.40
2019-05-25T23:43:37.748Z,19.32
2019-05-25T23:46:11.566Z,19.37
2019-05-25T23:48:45.735Z,19.67
2019-05-25T23:51:19.705Z,19.77
2019-05-25T23:53:53.891Z,19.95
2019-05-25T23:56:27.963Z,20.00
2019-05-25T23:59:01.836Z,20.12
